createdAt,value
2018-05-25T00:00:18.805Z,904.93
2018-05-25T00:02:45.981Z,821.33
2018-05-25T00:05:12.425Z,894.80
2018-05-25T00:07:38.895Z,884.67
2018-05-25T00:10:05.316Z,899.33
2018-05-25T00:12:32.777Z,862.97
2018-05-25T00:15:00.001Z,852.43
2018-05-25T00:17:26.507Z,864.03
2018-05-25T00:20:03.383Z,920.07
2018-05-25T00:22:30.621Z,900.90
2018-05-25T00:24:57.072Z,946.80
2018-05-25T00:27:24.233Z,949.53
2018-05-25T00:29:50.670Z,899.07
2018-05-25T00:32:17.873Z,877.40
2018-05-25T00:34:44.358Z,943.90
2018-05-25T00:37:11.506Z,948.13
2018-05-25T00:39:37.987Z,978.57
2018-05-25T00:42:04.408Z,961.83
2018-05-25T00:44:30.893Z,961.87
2018-05-25T00:46:57.318Z,990.10
2018-05-25T00:49:23.789Z,1015.87
2018-05-25T00:51:50.968Z,1013.93
2018-05-25T00:54:17.405Z,1263.53
2018-05-25T00:56:43.830Z,1105.53
2018-05-25T00:59:10.295Z,973.33
2018-05-25T01:01:36.694Z,1161.63
2018-05-25T01:04:03.159Z,1237.57
2018-05-25T01:06:29.617Z,938.47
2018-05-25T01:08:56.090Z,1081.47
2018-05-25T01:11:22.604Z,1649.77
2018-05-25T01:13:49.054Z,1999.90
2018-05-25T01:16:16.520Z,1999.90
2018-05-25T01:18:43.045Z,1999.90
2018-05-25T01:21:09.546Z,1999.90
2018-05-25T01:23:45.331Z,1574.63
2018-05-25T01:26:11.797Z,1772.97
2018-05-25T01:28:39.068Z,1479.47
2018-05-25T01:31:05.585Z,1924.03
2018-05-25T01:33:32.854Z,1999.90
2018-05-25T01:35:59.372Z,1999.90
2018-05-25T01:38:26.599Z,1999.90
2018-05-25T01:40:53.823Z,1999.90
2018-05-25T01:43:21.302Z,1826.47
2018-05-25T01:45:48.534Z,1999.90
2018-05-25T01:48:14.996Z,1999.90
2018-05-25T01:50:41.460Z,1764.93
2018-05-25T01:53:08.686Z,1867.07
2018-05-25T01:55:36.180Z,1999.90
2018-05-25T01:58:29.688Z,1577.90
2018-05-25T02:00:56.233Z,1516.17
2018-05-25T02:03:22.797Z,1106.33
2018-05-25T02:05:50.101Z,973.77
2018-05-25T02:08:16.630Z,920.17
2018-05-25T02:10:43.154Z,1071.10
2018-05-25T02:13:09.676Z,923.53
2018-05-25T02:15:36.223Z,752.37
2018-05-25T02:18:02.746Z,1043.43
2018-05-25T02:20:29.288Z,1036.73
2018-05-25T02:22:55.853Z,1999.90
2018-05-25T02:25:22.393Z,1544.00
2018-05-25T02:27:48.930Z,1643.93
2018-05-25T02:30:15.523Z,1377.37
2018-05-25T02:32:42.046Z,1343.10
2018-05-25T02:35:08.623Z,1227.20
2018-05-25T02:37:35.146Z,830.57
2018-05-25T02:40:01.684Z,1542.50
2018-05-25T02:42:29.085Z,1251.63
2018-05-25T02:44:55.604Z,1885.30
2018-05-25T02:47:22.124Z,1999.90
2018-05-25T02:49:48.700Z,1947.47
2018-05-25T02:52:15.250Z,1609.00
2018-05-25T02:54:41.812Z,1634.30
2018-05-25T02:57:08.364Z,1686.50
2018-05-25T02:59:42.601Z,1742.30
2018-05-25T03:02:09.148Z,1529.93
2018-05-25T03:04:35.612Z,1470.90
2018-05-25T03:07:02.838Z,1406.73
2018-05-25T03:09:42.826Z,1360.17
2018-05-25T03:12:09.355Z,1488.10
2018-05-25T03:14:35.879Z,1485.50
2018-05-25T03:17:02.489Z,1674.60
2018-05-25T03:19:30.337Z,1678.77
2018-05-25T03:21:56.896Z,1649.87
2018-05-25T03:24:24.146Z,740.90
2018-05-25T03:26:50.676Z,1545.53
2018-05-25T03:29:17.938Z,1319.10
2018-05-25T03:31:44.478Z,1348.60
2018-05-25T03:34:11.004Z,1405.60
2018-05-25T03:36:38.270Z,982.20
2018-05-25T03:39:05.567Z,1005.43
2018-05-25T03:41:32.059Z,1333.60
2018-05-25T03:43:58.634Z,1346.83
2018-05-25T03:46:25.170Z,1053.30
2018-05-25T03:48:51.745Z,1329.73
2018-05-25T03:51:18.302Z,1589.80
2018-05-25T03:53:44.854Z,1353.87
2018-05-25T03:56:11.391Z,1474.17
2018-05-25T03:58:50.049Z,1750.40
2018-05-25T04:01:29.371Z,967.80
2018-05-25T04:03:55.961Z,1536.60
2018-05-25T04:06:22.476Z,1370.93
2018-05-25T04:08:49.051Z,1236.30
2018-05-25T04:11:15.650Z,1205.90
2018-05-25T04:13:42.103Z,1029.80
2018-05-25T04:16:08.578Z,999.20
2018-05-25T04:18:35.781Z,892.47
2018-05-25T04:21:02.229Z,807.03
2018-05-25T04:23:28.683Z,796.93
2018-05-25T04:25:55.836Z,697.90
2018-05-25T04:28:23.040Z,1211.60
2018-05-25T04:30:49.456Z,1001.30
2018-05-25T04:33:15.913Z,1284.63
2018-05-25T04:35:42.351Z,931.50
2018-05-25T04:38:08.777Z,944.90
2018-05-25T04:40:35.203Z,830.37
2018-05-25T04:43:01.747Z,910.17
2018-05-25T04:45:28.215Z,811.30
2018-05-25T04:47:54.645Z,891.37
2018-05-25T04:50:21.859Z,923.30
2018-05-25T04:52:48.292Z,972.93
2018-05-25T04:55:15.534Z,1014.03
2018-05-25T04:57:42.009Z,1386.30
2018-05-25T05:00:09.221Z,1290.67
2018-05-25T05:02:35.622Z,1424.20
2018-05-25T05:05:02.916Z,1325.57
2018-05-25T05:09:55.559Z,934.60
2018-05-25T05:12:22.759Z,1281.50
2018-05-25T05:14:49.255Z,1291.77
2018-05-25T05:17:15.748Z,1130.67
2018-05-25T05:19:44.272Z,1239.30
2018-05-25T05:22:15.096Z,1148.70
2018-05-25T05:24:41.603Z,1235.60
2018-05-25T05:27:08.046Z,1079.70
2018-05-25T05:29:35.444Z,1179.23
2018-05-25T05:32:01.887Z,1102.47
2018-05-25T05:34:28.313Z,1321.53
2018-05-25T05:36:54.731Z,1241.20
2018-05-25T05:39:21.168Z,1465.63
2018-05-25T05:41:48.336Z,1129.80
2018-05-25T05:44:14.760Z,1248.03
2018-05-25T05:46:41.154Z,1420.23
2018-05-25T05:49:07.577Z,1448.23
2018-05-25T05:51:33.967Z,1286.20
2018-05-25T05:54:00.396Z,1143.70
2018-05-25T05:56:26.819Z,1118.30
2018-05-25T05:58:53.949Z,1148.00
2018-05-25T06:01:22.127Z,1148.60
2018-05-25T06:03:49.330Z,937.97
2018-05-25T06:06:15.768Z,925.30
2018-05-25T06:08:42.202Z,948.30
2018-05-25T06:11:08.615Z,850.67
2018-05-25T06:16:27.726Z,791.20
2018-05-25T06:19:29.021Z,706.63
2018-05-25T06:21:55.527Z,733.60
2018-05-25T06:24:22.690Z,701.00
2018-05-25T06:26:49.820Z,701.93
2018-05-25T06:29:16.236Z,733.57
2018-05-25T06:31:42.633Z,639.00
2018-05-25T06:34:10.047Z,588.70
2018-05-25T06:40:19.572Z,387.33
2018-05-25T06:42:46.146Z,189.17
2018-05-25T06:45:12.765Z,195.10
2018-05-25T06:47:39.285Z,167.83
2018-05-25T06:50:06.575Z,153.90
2018-05-25T06:52:33.091Z,132.20
2018-05-25T06:55:00.595Z,119.90
2018-05-25T06:57:27.087Z,114.93
2018-05-25T06:59:53.596Z,122.63
2018-05-25T07:02:20.848Z,97.53
2018-05-25T07:04:48.089Z,90.03
2018-05-25T07:07:15.345Z,75.23
2018-05-25T07:09:42.629Z,82.87
2018-05-25T07:12:09.142Z,77.97
2018-05-25T07:14:36.452Z,69.57
2018-05-25T07:17:02.995Z,71.07
2018-05-25T07:19:29.569Z,87.50
2018-05-25T07:21:56.105Z,74.53
2018-05-25T07:24:23.358Z,66.70
2018-05-25T07:26:49.925Z,59.90
2018-05-25T07:29:17.173Z,64.40
2018-05-25T07:31:43.689Z,61.63
2018-05-25T07:34:10.310Z,62.93
2018-05-25T07:36:36.856Z,59.90
2018-05-25T07:39:05.029Z,56.13
2018-05-25T07:41:31.423Z,54.90
2018-05-25T07:43:57.815Z,46.80
2018-05-25T07:46:24.221Z,48.87
2018-05-25T07:48:51.392Z,51.97
2018-05-25T07:51:18.855Z,54.42
2018-05-25T07:53:45.300Z,54.55
2018-05-25T07:56:11.789Z,50.95
2018-05-25T07:58:38.212Z,55.12
2018-05-25T08:01:04.635Z,49.08
2018-05-25T08:03:32.627Z,56.85
2018-05-25T08:05:59.057Z,54.90
2018-05-25T08:08:26.281Z,53.22
2018-05-25T08:10:52.677Z,52.38
2018-05-25T08:13:19.137Z,48.47
2018-05-25T08:15:45.577Z,53.92
2018-05-25T08:18:12.018Z,54.25
2018-05-25T08:20:38.437Z,51.10
2018-05-25T08:23:04.897Z,51.20
2018-05-25T08:25:31.833Z,52.62
2018-05-25T08:28:06.202Z,56.08
2018-05-25T08:30:32.694Z,50.75
2018-05-25T08:32:59.397Z,51.05
2018-05-25T08:35:25.975Z,52.33
2018-05-25T08:37:53.230Z,52.20
2018-05-25T08:40:19.673Z,50.50
2018-05-25T08:42:46.799Z,53.72
2018-05-25T08:45:14.969Z,50.88
2018-05-25T08:47:41.368Z,49.55
2018-05-25T08:50:08.620Z,54.22
2018-05-25T08:52:35.035Z,51.42
2018-05-25T08:55:01.488Z,50.60
2018-05-25T08:57:27.945Z,53.25
2018-05-25T08:59:55.160Z,50.17
2018-05-25T09:02:21.587Z,48.17
2018-05-25T09:04:48.063Z,45.00
2018-05-25T09:07:14.472Z,45.85
2018-05-25T09:09:54.777Z,43.85
2018-05-25T09:12:21.338Z,48.83
2018-05-25T09:14:55.613Z,44.90
2018-05-25T09:17:22.046Z,46.88
2018-05-25T09:19:48.452Z,44.13
2018-05-25T09:22:14.865Z,47.85
2018-05-25T09:24:41.325Z,42.85
2018-05-25T09:27:07.767Z,44.00
2018-05-25T09:29:34.199Z,45.05
2018-05-25T09:32:00.649Z,36.33
2018-05-25T09:34:27.401Z,38.42
2018-05-25T09:36:53.923Z,34.80
2018-05-25T09:39:20.372Z,38.25
2018-05-25T09:41:47.573Z,39.58
2018-05-25T09:44:14.043Z,47.40
2018-05-25T09:46:40.640Z,47.92
2018-05-25T09:49:07.074Z,40.78
2018-05-25T09:51:33.712Z,44.65
2018-05-25T09:54:00.093Z,42.08
2018-05-25T09:56:27.423Z,44.78
2018-05-25T09:58:53.830Z,43.72
2018-05-25T10:01:22.308Z,43.38
2018-05-25T10:04:03.566Z,44.47
2018-05-25T10:06:30.213Z,39.05
2018-05-25T10:08:57.447Z,43.78
2018-05-25T10:11:24.924Z,47.40
2018-05-25T10:13:51.322Z,43.70
2018-05-25T10:16:17.732Z,45.53
2018-05-25T10:18:44.146Z,36.60
2018-05-25T10:21:11.423Z,39.88
2018-05-25T10:23:37.828Z,45.45
2018-05-25T10:26:05.140Z,42.28
2018-05-25T10:28:31.605Z,42.83
2018-05-25T10:30:58.799Z,39.65
2018-05-25T10:33:26.619Z,46.90
2018-05-25T11:20:51.347Z,53.33
2018-05-25T11:23:18.036Z,49.90
2018-05-25T11:25:45.446Z,49.63
2018-05-25T11:28:12.051Z,49.10
2018-05-25T11:30:38.621Z,46.20
2018-05-25T11:33:05.204Z,49.60
2018-05-25T11:35:31.712Z,46.58
2018-05-25T11:37:58.246Z,48.83
2018-05-25T11:40:24.783Z,47.40
2018-05-25T11:42:51.330Z,44.08
2018-05-25T11:45:17.854Z,53.47
2018-05-25T11:47:45.206Z,53.03
2018-05-25T11:50:11.726Z,56.10
2018-05-25T11:52:38.279Z,51.33
2018-05-25T11:55:04.811Z,49.50
2018-05-25T11:57:31.338Z,50.00
2018-05-25T11:59:57.880Z,50.97
2018-05-25T12:02:24.394Z,49.72
2018-05-25T12:04:50.877Z,47.75
2018-05-25T12:07:18.213Z,45.30
2018-05-25T12:09:45.496Z,47.55
2018-05-25T12:12:12.800Z,45.08
2018-05-25T12:14:39.336Z,44.95
2018-05-25T12:17:05.839Z,45.25
2018-05-25T12:19:32.375Z,47.62
2018-05-25T12:24:24.287Z,68.65
2018-05-25T12:26:51.466Z,93.43
2018-05-25T12:29:17.879Z,97.62
2018-05-25T12:35:14.714Z,137.65
2018-05-25T12:37:41.134Z,126.20
2018-05-25T12:40:07.565Z,128.57
2018-05-25T12:42:33.966Z,116.90
2018-05-25T12:45:11.415Z,124.07
2018-05-25T12:47:38.581Z,112.12
2018-05-25T12:50:05.856Z,120.18
2018-05-25T12:52:32.355Z,120.30
2018-05-25T12:54:58.893Z,123.45
2018-05-25T12:57:25.294Z,121.80
2018-05-25T12:59:53.773Z,110.57
2018-05-25T13:02:20.263Z,118.75
2018-05-25T13:04:46.673Z,117.80
2018-05-25T13:07:13.072Z,111.55
2018-05-25T13:09:39.701Z,119.23
2018-05-25T13:12:06.108Z,117.10
2018-05-25T13:14:32.953Z,112.28
2018-05-25T13:16:59.553Z,112.12
2018-05-25T13:19:26.897Z,115.93
2018-05-25T13:21:53.305Z,114.03
2018-05-25T13:24:19.932Z,109.53
2018-05-25T13:26:46.329Z,106.32
2018-05-25T13:29:12.791Z,108.12
2018-05-25T13:31:39.215Z,111.18
2018-05-25T13:34:05.761Z,108.05
2018-05-25T13:36:32.330Z,106.68
2018-05-25T13:38:58.759Z,113.10
2018-05-25T13:41:25.351Z,118.37
2018-05-25T13:43:51.819Z,108.35
2018-05-25T13:46:19.288Z,114.12
2018-05-25T13:48:46.488Z,116.97
2018-05-25T13:51:12.966Z,118.50
2018-05-25T13:58:32.155Z,118.87
2018-05-25T14:00:58.634Z,112.95
2018-05-25T14:03:25.893Z,121.43
2018-05-25T14:06:13.395Z,122.50
2018-05-25T14:08:39.982Z,125.22
2018-05-25T14:11:06.512Z,123.13
2018-05-25T14:13:33.788Z,125.10
2018-05-25T14:16:00.411Z,119.93
2018-05-25T14:18:26.965Z,116.65
2018-05-25T14:20:54.481Z,120.70
2018-05-25T14:23:21.760Z,119.07
2018-05-25T14:26:02.362Z,120.57
2018-05-25T14:28:28.956Z,119.78
2018-05-25T14:30:55.656Z,119.20
2018-05-25T14:33:22.196Z,109.93
2018-05-25T14:35:50.498Z,109.50
2018-05-25T14:38:17.151Z,109.35
2018-05-25T14:40:45.745Z,114.32
2018-05-25T14:43:13.066Z,118.00
2018-05-25T14:45:47.350Z,123.00
2018-05-25T14:48:14.039Z,126.70
2018-05-25T14:50:40.683Z,132.75
2018-05-25T14:53:07.258Z,128.70
2018-05-25T14:55:33.897Z,148.95
2018-05-25T14:58:00.416Z,133.07
2018-05-25T15:00:27.045Z,138.95
2018-05-25T15:02:53.631Z,138.30
2018-05-25T15:05:20.210Z,147.18
2018-05-25T15:07:46.756Z,147.87
2018-05-25T15:10:13.237Z,132.50
2018-05-25T15:12:39.701Z,144.35
2018-05-25T15:15:06.136Z,134.45
2018-05-25T15:17:33.331Z,125.50
2018-05-25T15:19:59.825Z,141.65
2018-05-25T15:22:26.404Z,127.05
2018-05-25T15:24:52.850Z,133.43
2018-05-25T15:27:19.323Z,120.35
2018-05-25T15:29:46.497Z,125.95
2018-05-25T15:32:12.950Z,127.28
2018-05-25T15:34:39.397Z,118.50
2018-05-25T15:37:37.045Z,117.80
2018-05-25T15:40:03.805Z,119.55
2018-05-25T15:42:30.408Z,129.07
2018-05-25T15:44:57.018Z,127.85
2018-05-25T15:47:23.559Z,119.82
2018-05-25T15:49:50.127Z,118.93
2018-05-25T15:52:16.672Z,115.62
2018-05-25T15:54:43.352Z,118.93
2018-05-25T15:57:09.888Z,118.82
2018-05-25T15:59:36.553Z,119.50
2018-05-25T16:02:04.623Z,128.40
2018-05-25T16:04:31.285Z,121.85
2018-05-25T16:06:57.848Z,122.05
2018-05-25T16:09:24.416Z,124.00
2018-05-25T16:11:52.036Z,120.20
2018-05-25T16:14:19.089Z,125.20
2018-05-25T16:16:45.906Z,118.18
2018-05-25T16:19:13.656Z,120.05
2018-05-25T16:21:40.310Z,114.50
2018-05-25T16:24:06.917Z,110.12
2018-05-25T16:26:33.452Z,112.03
2018-05-25T16:29:00.835Z,108.50
2018-05-25T16:31:27.411Z,106.72
2018-05-25T16:33:53.974Z,115.97
2018-05-25T16:36:21.269Z,112.68
2018-05-25T16:38:47.825Z,111.20
2018-05-25T16:41:25.784Z,102.70
2018-05-25T16:43:56.218Z,108.60
2018-05-25T16:46:22.615Z,108.43
2018-05-25T16:48:50.053Z,116.12
2018-05-25T16:51:16.528Z,107.65
2018-05-25T16:53:47.367Z,105.75
2018-05-25T16:56:13.828Z,107.78
2018-05-25T16:58:41.068Z,118.57
2018-05-25T17:01:08.355Z,110.90
2018-05-25T17:03:36.606Z,112.35
2018-05-25T17:06:03.284Z,106.72
2018-05-25T17:08:29.767Z,113.18
2018-05-25T17:10:56.207Z,121.82
2018-05-25T17:13:22.633Z,116.65
2018-05-25T17:15:49.817Z,110.85
2018-05-25T17:18:16.254Z,112.60
2018-05-25T17:20:42.690Z,105.15
2018-05-25T17:23:09.147Z,111.90
2018-05-25T17:25:35.581Z,113.68
2018-05-25T17:28:02.055Z,112.32
2018-05-25T17:30:29.249Z,122.55
2018-05-25T17:32:55.676Z,115.10
2018-05-25T17:35:22.104Z,123.15
2018-05-25T17:37:48.565Z,128.27
2018-05-25T17:40:14.981Z,131.50
2018-05-25T17:42:41.386Z,132.68
2018-05-25T17:45:08.574Z,130.98
2018-05-25T17:47:34.991Z,127.38
2018-05-25T17:50:01.452Z,132.20
2018-05-25T17:52:27.885Z,130.48
2018-05-25T17:54:54.354Z,136.27
2018-05-25T17:57:21.538Z,132.40
2018-05-25T17:59:47.963Z,136.15
2018-05-25T18:02:14.377Z,139.57
2018-05-25T18:04:42.530Z,143.32
2018-05-25T18:07:21.420Z,133.00
2018-05-25T18:10:23.177Z,143.18
2018-05-25T18:12:49.770Z,153.33
2018-05-25T18:15:16.333Z,147.80
2018-05-25T18:17:42.862Z,146.20
2018-05-25T18:20:09.370Z,156.00
2018-05-25T18:22:35.977Z,148.98
2018-05-25T18:25:03.297Z,145.90
2018-05-25T18:27:29.808Z,162.43
2018-05-25T18:29:56.388Z,151.90
2018-05-25T18:32:23.654Z,162.40
2018-05-25T18:34:50.191Z,171.45
2018-05-25T18:37:17.735Z,163.73
2018-05-25T18:39:45.042Z,172.27
2018-05-25T18:42:11.578Z,165.97
2018-05-25T18:44:38.101Z,183.20
2018-05-25T18:47:04.727Z,187.63
2018-05-25T18:49:31.254Z,180.40
2018-05-25T18:51:57.792Z,177.20
2018-05-25T18:54:33.414Z,200.87
2018-05-25T18:56:59.948Z,209.63
2018-05-25T18:59:27.201Z,212.63
2018-05-25T19:01:53.782Z,235.97
2018-05-25T19:04:20.328Z,261.47
2018-05-25T19:06:46.985Z,274.70
2018-05-25T19:09:13.530Z,291.13
2018-05-25T19:14:15.736Z,291.80
2018-05-25T19:16:42.982Z,300.87
2018-05-25T19:19:09.457Z,276.37
2018-05-25T19:21:35.876Z,325.97
2018-05-25T19:24:03.080Z,336.90
2018-05-25T19:26:29.537Z,338.83
2018-05-25T19:28:55.944Z,370.20
2018-05-25T19:31:22.343Z,350.03
2018-05-25T19:33:48.797Z,324.67
2018-05-25T19:36:15.194Z,338.03
2018-05-25T19:38:42.467Z,308.80
2018-05-25T19:41:08.865Z,275.20
2018-05-25T19:43:36.063Z,287.07
2018-05-25T19:46:02.554Z,284.07
2018-05-25T19:48:28.984Z,269.23
2018-05-25T19:50:56.167Z,266.97
2018-05-25T19:53:22.571Z,260.70
2018-05-25T19:55:49.000Z,238.53
2018-05-25T19:58:16.215Z,278.03
2018-05-25T20:00:43.623Z,280.27
2018-05-25T20:03:10.044Z,272.57
2018-05-25T20:05:36.451Z,286.70
2018-05-25T20:08:03.630Z,309.87
2018-05-25T20:10:31.059Z,340.70
2018-05-25T20:12:58.202Z,292.33
2018-05-25T20:15:54.903Z,278.30
2018-05-25T20:18:29.005Z,285.27
2018-05-25T20:20:56.252Z,282.13
2018-05-25T20:23:22.752Z,276.63
2018-05-25T20:25:49.218Z,266.10
2018-05-25T20:28:15.659Z,269.10
2018-05-25T20:30:42.832Z,273.63
2018-05-25T20:33:09.277Z,308.93
2018-05-25T20:35:35.745Z,322.47
2018-05-25T20:38:03.219Z,372.07
2018-05-25T20:40:30.392Z,371.63
2018-05-25T20:42:56.855Z,358.10
2018-05-25T20:45:23.278Z,376.33
2018-05-25T20:47:49.755Z,390.63
2018-05-25T20:50:16.192Z,416.27
2018-05-25T20:52:42.614Z,420.07
2018-05-25T20:55:09.821Z,390.77
2018-05-25T20:57:36.309Z,394.00
2018-05-25T21:00:03.547Z,411.80
2018-05-25T21:02:29.983Z,385.80
2018-05-25T21:04:56.408Z,394.60
2018-05-25T21:07:31.211Z,403.77
2018-05-25T21:09:58.388Z,419.60
2018-05-25T21:12:24.867Z,374.77
2018-05-25T21:14:51.282Z,443.53
2018-05-25T21:17:17.705Z,424.90
2018-05-25T21:19:44.159Z,463.73
2018-05-25T21:22:10.583Z,418.57
2018-05-25T21:24:37.055Z,407.63
2018-05-25T21:27:03.489Z,394.97
2018-05-25T21:29:29.933Z,390.97
2018-05-25T21:31:56.315Z,412.63
2018-05-25T21:34:22.849Z,420.17
2018-05-25T21:36:49.264Z,407.57
2018-05-25T21:39:16.488Z,409.33
2018-05-25T21:41:43.684Z,441.67
2018-05-25T21:44:10.131Z,359.70
2018-05-25T21:46:36.544Z,386.67
2018-05-25T21:49:03.008Z,381.97
2018-05-25T21:51:29.425Z,418.00
2018-05-25T21:53:55.869Z,432.47
2018-05-25T21:56:22.356Z,312.00
2018-05-25T21:58:49.539Z,406.37
2018-05-25T22:01:15.970Z,394.20
2018-05-25T22:03:42.418Z,332.80
2018-05-25T22:06:08.832Z,371.73
2018-05-25T22:08:35.244Z,370.87
2018-05-25T22:11:01.708Z,342.93
2018-05-25T22:13:28.181Z,398.60
2018-05-25T22:15:54.631Z,379.50
2018-05-25T22:18:21.034Z,382.63
2018-05-25T22:20:47.461Z,325.83
2018-05-25T22:23:22.564Z,365.23
2018-05-25T22:25:49.083Z,324.07
2018-05-25T22:28:15.507Z,312.97
2018-05-25T22:30:41.951Z,343.77
2018-05-25T22:33:08.328Z,352.60
2018-05-25T22:35:35.502Z,352.47
2018-05-25T22:38:01.946Z,335.40
2018-05-25T22:40:28.340Z,311.40
2018-05-25T22:43:07.664Z,267.63
2018-05-25T22:45:46.219Z,370.27
2018-05-25T22:48:24.658Z,346.67
2018-05-25T22:51:03.124Z,344.20
2018-05-25T22:53:36.068Z,367.73
2018-05-25T22:56:02.501Z,357.20
2018-05-25T22:58:29.656Z,368.10
2018-05-25T23:00:57.090Z,340.97
2018-05-25T23:03:23.550Z,372.00
2018-05-25T23:05:49.973Z,322.70
2018-05-25T23:08:16.380Z,389.60
2018-05-25T23:10:42.814Z,380.13
2018-05-25T23:13:09.206Z,408.60
2018-05-25T23:15:36.396Z,389.33
2018-05-25T23:18:02.853Z,388.33
2018-05-25T23:20:29.289Z,413.77
2018-05-25T23:22:55.684Z,421.50
2018-05-25T23:25:22.120Z,423.80
2018-05-25T23:27:48.753Z,378.23
2018-05-25T23:30:15.378Z,408.53
2018-05-25T23:32:41.841Z,389.67
2018-05-25T23:35:08.297Z,382.33
2018-05-25T23:37:36.444Z,409.93
2018-05-25T23:40:02.962Z,407.07
2018-05-25T23:42:29.440Z,378.17
2018-05-25T23:44:55.946Z,448.27
2018-05-25T23:47:22.437Z,421.27
2018-05-25T23:49:48.971Z,417.03
2018-05-25T23:52:15.432Z,424.27
2018-05-25T23:54:41.911Z,556.23
2018-05-25T23:57:09.111Z,508.40
2018-05-25T23:59:35.566Z,601.70
